sensor_id;sensor_type;location;lat;lon;timestamp;temperature;humidity
44215;DHT22;29884;47.450;19.124;2022-07-06T00:01:41;18.70;99.90
44215;DHT22;29884;47.450;19.124;2022-07-06T00:04:07;18.70;99.90
44215;DHT22;29884;47.450;19.124;2022-07-06T00:06:33;18.70;99.90
44215;DHT22;29884;47.450;19.124;2022-07-06T00:08:59;18.70;99.90
44215;DHT22;29884;47.450;19.124;2022-07-06T00:11:25;18.70;99.90
44215;DHT22;29884;47.450;19.124;2022-07-06T00:13:51;18.70;99.90
44215;DHT22;29884;47.450;19.124;2022-07-06T00:16:17;18.60;99.90
44215;DHT22;29884;47.450;19.124;2022-07-06T00:18:44;18.60;99.90
44215;DHT22;29884;47.450;19.124;2022-07-06T00:21:09;18.60;99.90
44215;DHT22;29884;47.450;19.124;2022-07-06T00:23:35;18.50;99.90
44215;DHT22;29884;47.450;19.124;2022-07-06T00:26:01;18.60;99.90
44215;DHT22;29884;47.450;19.124;2022-07-06T00:28:27;18.50;99.90
44215;DHT22;29884;47.450;19.124;2022-07-06T00:30:53;18.50;99.90
44215;DHT22;29884;47.450;19.124;2022-07-06T00:33:19;18.50;99.90
44215;DHT22;29884;47.450;19.124;2022-07-06T00:35:44;18.40;99.90
44215;DHT22;29884;47.450;19.124;2022-07-06T00:38:10;18.50;99.90
44215;DHT22;29884;47.450;19.124;2022-07-06T00:40:36;18.40;99.90
44215;DHT22;29884;47.450;19.124;2022-07-06T00:43:02;18.40;99.90
44215;DHT22;29884;47.450;19.124;2022-07-06T00:45:27;18.40;99.90
44215;DHT22;29884;47.450;19.124;2022-07-06T00:47:53;18.40;99.90
44215;DHT22;29884;47.450;19.124;2022-07-06T00:50:19;18.40;99.90
44215;DHT22;29884;47.450;19.124;2022-07-06T00:52:53;18.30;99.90
44215;DHT22;29884;47.450;19.124;2022-07-06T00:55:24;18.30;99.90
44215;DHT22;29884;47.450;19.124;2022-07-06T00:57:50;18.40;99.90
44215;DHT22;29884;47.450;19.124;2022-07-06T01:00:19;18.30;99.90
44215;DHT22;29884;47.450;19.124;2022-07-06T01:02:46;18.30;99.90
44215;DHT22;29884;47.450;19.124;2022-07-06T01:05:14;18.30;99.90
44215;DHT22;29884;47.450;19.124;2022-07-06T01:07:42;18.30;99.90
44215;DHT22;29884;47.450;19.124;2022-07-06T01:10:10;18.30;99.90
44215;DHT22;29884;47.450;19.124;2022-07-06T01:12:38;18.30;99.90
44215;DHT22;29884;47.450;19.124;2022-07-06T01:15:05;18.30;99.90
44215;DHT22;29884;47.450;19.124;2022-07-06T01:17:32;18.30;99.90
44215;DHT22;29884;47.450;19.124;2022-07-06T01:20:06;18.30;99.90
44215;DHT22;29884;47.450;19.124;2022-07-06T01:22:32;18.30;99.90
44215;DHT22;29884;47.450;19.124;2022-07-06T01:24:57;18.30;99.90
44215;DHT22;29884;47.450;19.124;2022-07-06T01:27:23;18.30;99.90
44215;DHT22;29884;47.450;19.124;2022-07-06T01:29:49;18.30;99.90
44215;DHT22;29884;47.450;19.124;2022-07-06T01:32:14;18.30;99.90
44215;DHT22;29884;47.450;19.124;2022-07-06T01:34:40;18.30;99.90
44215;DHT22;29884;47.450;19.124;2022-07-06T01:37:06;18.30;99.90
44215;DHT22;29884;47.450;19.124;2022-07-06T01:39:32;18.20;99.90
44215;DHT22;29884;47.450;19.124;2022-07-06T01:41:58;18.20;99.90
44215;DHT22;29884;47.450;19.124;2022-07-06T01:44:23;18.20;99.90
44215;DHT22;29884;47.450;19.124;2022-07-06T01:46:49;18.20;99.90
44215;DHT22;29884;47.450;19.124;2022-07-06T01:49:15;18.20;99.90
44215;DHT22;29884;47.450;19.124;2022-07-06T01:51:40;18.20;99.90
44215;DHT22;29884;47.450;19.124;2022-07-06T01:54:06;18.20;99.90
44215;DHT22;29884;47.450;19.124;2022-07-06T01:56:32;18.20;99.90
44215;DHT22;29884;47.450;19.124;2022-07-06T01:58:58;18.20;99.90
44215;DHT22;29884;47.450;19.124;2022-07-06T02:01:23;18.20;99.90
44215;DHT22;29884;47.450;19.124;2022-07-06T02:03:49;18.10;99.90
44215;DHT22;29884;47.450;19.124;2022-07-06T02:06:15;18.10;99.90
44215;DHT22;29884;47.450;19.124;2022-07-06T02:08:42;18.10;99.90
44215;DHT22;29884;47.450;19.124;2022-07-06T02:11:09;18.10;99.90
44215;DHT22;29884;47.450;19.124;2022-07-06T02:13:35;18.10;99.90
44215;DHT22;29884;47.450;19.124;2022-07-06T02:16:03;18.10;99.90
44215;DHT22;29884;47.450;19.124;2022-07-06T02:18:29;18.10;99.90
44215;DHT22;29884;47.450;19.124;2022-07-06T02:20:55;18.10;99.90
44215;DHT22;29884;47.450;19.124;2022-07-06T02:23:20;18.10;99.90
44215;DHT22;29884;47.450;19.124;2022-07-06T02:25:46;18.10;99.90
44215;DHT22;29884;47.450;19.124;2022-07-06T02:28:12;18.10;99.90
44215;DHT22;29884;47.450;19.124;2022-07-06T02:30:38;18.10;99.90
44215;DHT22;29884;47.450;19.124;2022-07-06T02:33:03;18.10;99.90
44215;DHT22;29884;47.450;19.124;2022-07-06T02:35:29;18.10;99.90
44215;DHT22;29884;47.450;19.124;2022-07-06T02:37:55;18.10;99.90
44215;DHT22;29884;47.450;19.124;2022-07-06T02:40:21;18.10;99.90
44215;DHT22;29884;47.450;19.124;2022-07-06T02:42:47;18.10;99.90
44215;DHT22;29884;47.450;19.124;2022-07-06T02:45:12;18.10;99.90
44215;DHT22;29884;47.450;19.124;2022-07-06T02:47:38;18.00;99.90
44215;DHT22;29884;47.450;19.124;2022-07-06T02:50:04;18.00;99.90
44215;DHT22;29884;47.450;19.124;2022-07-06T02:52:30;18.00;99.90
44215;DHT22;29884;47.450;19.124;2022-07-06T02:54:56;18.00;99.90
44215;DHT22;29884;47.450;19.124;2022-07-06T02:57:22;18.00;99.90
44215;DHT22;29884;47.450;19.124;2022-07-06T02:59:47;18.00;99.90
44215;DHT22;29884;47.450;19.124;2022-07-06T03:02:16;18.00;99.90
44215;DHT22;29884;47.450;19.124;2022-07-06T03:04:42;18.00;99.90
44215;DHT22;29884;47.450;19.124;2022-07-06T03:07:08;18.00;99.90
44215;DHT22;29884;47.450;19.124;2022-07-06T03:09:33;18.00;99.90
44215;DHT22;29884;47.450;19.124;2022-07-06T03:11:59;18.00;99.90
44215;DHT22;29884;47.450;19.124;2022-07-06T03:14:25;18.00;99.90
44215;DHT22;29884;47.450;19.124;2022-07-06T03:16:52;18.00;99.90
44215;DHT22;29884;47.450;19.124;2022-07-06T03:19:18;18.00;99.90
44215;DHT22;29884;47.450;19.124;2022-07-06T03:21:44;18.00;99.90
44215;DHT22;29884;47.450;19.124;2022-07-06T03:24:10;18.00;99.90
44215;DHT22;29884;47.450;19.124;2022-07-06T03:26:36;18.10;99.90
44215;DHT22;29884;47.450;19.124;2022-07-06T03:29:02;18.10;99.90
44215;DHT22;29884;47.450;19.124;2022-07-06T03:31:27;18.10;99.90
44215;DHT22;29884;47.450;19.124;2022-07-06T03:33:53;18.10;99.90
44215;DHT22;29884;47.450;19.124;2022-07-06T03:36:19;18.10;99.90
44215;DHT22;29884;47.450;19.124;2022-07-06T03:38:45;18.20;99.90
44215;DHT22;29884;47.450;19.124;2022-07-06T03:41:10;18.20;99.90
44215;DHT22;29884;47.450;19.124;2022-07-06T03:43:36;18.20;99.90
44215;DHT22;29884;47.450;19.124;2022-07-06T03:46:03;18.30;99.90
44215;DHT22;29884;47.450;19.124;2022-07-06T03:48:29;18.40;99.90
44215;DHT22;29884;47.450;19.124;2022-07-06T03:50:54;18.30;99.90
44215;DHT22;29884;47.450;19.124;2022-07-06T03:53:20;18.30;99.90
44215;DHT22;29884;47.450;19.124;2022-07-06T03:55:46;18.40;99.90
44215;DHT22;29884;47.450;19.124;2022-07-06T03:58:32;18.40;99.90
44215;DHT22;29884;47.450;19.124;2022-07-06T04:00:57;18.50;99.90
44215;DHT22;29884;47.450;19.124;2022-07-06T04:03:23;18.50;99.90
44215;DHT22;29884;47.450;19.124;2022-07-06T04:05:49;18.60;99.90
44215;DHT22;29884;47.450;19.124;2022-07-06T04:08:14;18.60;99.90
44215;DHT22;29884;47.450;19.124;2022-07-06T04:10:40;18.60;99.90
44215;DHT22;29884;47.450;19.124;2022-07-06T04:13:06;18.60;99.90
44215;DHT22;29884;47.450;19.124;2022-07-06T04:15:32;18.60;99.90
44215;DHT22;29884;47.450;19.124;2022-07-06T04:17:58;18.70;99.90
44215;DHT22;29884;47.450;19.124;2022-07-06T04:20:24;18.70;99.90
44215;DHT22;29884;47.450;19.124;2022-07-06T04:22:51;18.70;99.90
44215;DHT22;29884;47.450;19.124;2022-07-06T04:25:17;18.70;99.90
44215;DHT22;29884;47.450;19.124;2022-07-06T04:27:43;18.80;99.90
44215;DHT22;29884;47.450;19.124;2022-07-06T04:30:10;18.80;99.90
44215;DHT22;29884;47.450;19.124;2022-07-06T04:32:36;18.90;99.90
44215;DHT22;29884;47.450;19.124;2022-07-06T04:35:03;18.90;99.90
44215;DHT22;29884;47.450;19.124;2022-07-06T04:37:29;19.00;99.90
44215;DHT22;29884;47.450;19.124;2022-07-06T04:39:54;19.00;99.90
44215;DHT22;29884;47.450;19.124;2022-07-06T04:42:20;19.10;99.90
44215;DHT22;29884;47.450;19.124;2022-07-06T04:44:46;19.20;99.90
44215;DHT22;29884;47.450;19.124;2022-07-06T04:47:12;19.20;99.90
44215;DHT22;29884;47.450;19.124;2022-07-06T04:49:38;19.20;99.90
44215;DHT22;29884;47.450;19.124;2022-07-06T04:52:04;19.30;99.90
44215;DHT22;29884;47.450;19.124;2022-07-06T04:54:31;19.30;99.90
44215;DHT22;29884;47.450;19.124;2022-07-06T04:56:56;19.40;99.90
44215;DHT22;29884;47.450;19.124;2022-07-06T04:59:22;19.40;99.90
44215;DHT22;29884;47.450;19.124;2022-07-06T05:01:48;19.50;99.90
44215;DHT22;29884;47.450;19.124;2022-07-06T05:04:13;19.60;99.90
44215;DHT22;29884;47.450;19.124;2022-07-06T05:06:40;19.60;99.90
44215;DHT22;29884;47.450;19.124;2022-07-06T05:09:06;19.70;99.90
44215;DHT22;29884;47.450;19.124;2022-07-06T05:11:31;19.70;99.90
44215;DHT22;29884;47.450;19.124;2022-07-06T05:13:57;19.70;99.90
44215;DHT22;29884;47.450;19.124;2022-07-06T05:16:23;19.80;99.90
44215;DHT22;29884;47.450;19.124;2022-07-06T05:18:49;19.80;99.90
44215;DHT22;29884;47.450;19.124;2022-07-06T05:21:15;19.90;99.90
44215;DHT22;29884;47.450;19.124;2022-07-06T05:23:41;20.00;99.90
44215;DHT22;29884;47.450;19.124;2022-07-06T05:26:07;20.00;99.90
44215;DHT22;29884;47.450;19.124;2022-07-06T05:28:33;20.10;99.90
44215;DHT22;29884;47.450;19.124;2022-07-06T05:30:59;20.10;99.90
44215;DHT22;29884;47.450;19.124;2022-07-06T05:33:27;20.20;99.90
44215;DHT22;29884;47.450;19.124;2022-07-06T05:35:53;20.30;99.90
44215;DHT22;29884;47.450;19.124;2022-07-06T05:38:19;20.30;99.90
44215;DHT22;29884;47.450;19.124;2022-07-06T05:40:45;20.30;99.90
44215;DHT22;29884;47.450;19.124;2022-07-06T05:43:11;20.40;99.90
44215;DHT22;29884;47.450;19.124;2022-07-06T05:45:36;20.50;99.90
44215;DHT22;29884;47.450;19.124;2022-07-06T05:48:02;20.50;99.90
44215;DHT22;29884;47.450;19.124;2022-07-06T05:50:47;20.50;99.90
44215;DHT22;29884;47.450;19.124;2022-07-06T05:53:13;20.60;99.90
44215;DHT22;29884;47.450;19.124;2022-07-06T05:55:38;20.60;99.90
44215;DHT22;29884;47.450;19.124;2022-07-06T05:58:04;20.60;99.90
44215;DHT22;29884;47.450;19.124;2022-07-06T06:00:30;20.70;99.90
44215;DHT22;29884;47.450;19.124;2022-07-06T06:02:56;20.80;99.90
44215;DHT22;29884;47.450;19.124;2022-07-06T06:05:23;20.80;99.90
44215;DHT22;29884;47.450;19.124;2022-07-06T06:07:48;20.90;99.90
44215;DHT22;29884;47.450;19.124;2022-07-06T06:10:18;20.80;99.90
44215;DHT22;29884;47.450;19.124;2022-07-06T06:12:45;21.00;99.90
44215;DHT22;29884;47.450;19.124;2022-07-06T06:15:11;21.10;99.90
44215;DHT22;29884;47.450;19.124;2022-07-06T06:17:38;21.10;99.90
44215;DHT22;29884;47.450;19.124;2022-07-06T06:20:09;21.30;99.90
44215;DHT22;29884;47.450;19.124;2022-07-06T06:25:19;21.40;99.90
44215;DHT22;29884;47.450;19.124;2022-07-06T06:27:46;21.40;99.90
44215;DHT22;29884;47.450;19.124;2022-07-06T06:30:13;21.50;99.90
44215;DHT22;29884;47.450;19.124;2022-07-06T06:32:39;21.50;99.90
44215;DHT22;29884;47.450;19.124;2022-07-06T06:35:06;21.60;99.90
44215;DHT22;29884;47.450;19.124;2022-07-06T06:37:32;21.70;99.90
44215;DHT22;29884;47.450;19.124;2022-07-06T06:40:00;21.80;99.90
44215;DHT22;29884;47.450;19.124;2022-07-06T06:42:25;21.90;99.90
44215;DHT22;29884;47.450;19.124;2022-07-06T06:44:51;21.90;99.90
44215;DHT22;29884;47.450;19.124;2022-07-06T06:47:17;21.90;99.90
44215;DHT22;29884;47.450;19.124;2022-07-06T06:49:44;22.10;99.90
44215;DHT22;29884;47.450;19.124;2022-07-06T06:52:10;22.20;99.90
44215;DHT22;29884;47.450;19.124;2022-07-06T06:54:36;22.20;99.90
44215;DHT22;29884;47.450;19.124;2022-07-06T06:57:01;22.30;99.90
44215;DHT22;29884;47.450;19.124;2022-07-06T06:59:27;22.30;99.90
44215;DHT22;29884;47.450;19.124;2022-07-06T07:01:53;22.40;99.90
44215;DHT22;29884;47.450;19.124;2022-07-06T07:04:19;22.40;99.90
44215;DHT22;29884;47.450;19.124;2022-07-06T07:06:44;22.60;99.90
44215;DHT22;29884;47.450;19.124;2022-07-06T07:09:10;22.60;99.90
44215;DHT22;29884;47.450;19.124;2022-07-06T07:11:36;22.50;99.90
44215;DHT22;29884;47.450;19.124;2022-07-06T07:14:02;22.60;99.90
44215;DHT22;29884;47.450;19.124;2022-07-06T07:16:28;22.70;99.90
44215;DHT22;29884;47.450;19.124;2022-07-06T07:18:54;22.60;99.90
44215;DHT22;29884;47.450;19.124;2022-07-06T07:21:20;22.70;99.90
44215;DHT22;29884;47.450;19.124;2022-07-06T07:23:45;22.70;99.90
44215;DHT22;29884;47.450;19.124;2022-07-06T07:26:11;22.90;99.90
44215;DHT22;29884;47.450;19.124;2022-07-06T07:28:37;22.90;99.90
44215;DHT22;29884;47.450;19.124;2022-07-06T07:31:04;22.90;99.90
44215;DHT22;29884;47.450;19.124;2022-07-06T07:33:30;23.00;99.90
44215;DHT22;29884;47.450;19.124;2022-07-06T07:35:56;23.00;99.90
44215;DHT22;29884;47.450;19.124;2022-07-06T07:38:21;23.00;99.90
44215;DHT22;29884;47.450;19.124;2022-07-06T07:40:47;23.10;99.90
44215;DHT22;29884;47.450;19.124;2022-07-06T07:43:13;23.20;99.90
44215;DHT22;29884;47.450;19.124;2022-07-06T07:45:39;23.40;99.90
44215;DHT22;29884;47.450;19.124;2022-07-06T07:48:05;23.50;99.90
44215;DHT22;29884;47.450;19.124;2022-07-06T07:50:31;23.30;99.90
44215;DHT22;29884;47.450;19.124;2022-07-06T07:52:57;23.30;99.90
44215;DHT22;29884;47.450;19.124;2022-07-06T07:55:22;23.30;99.90
44215;DHT22;29884;47.450;19.124;2022-07-06T07:57:48;23.30;99.90
44215;DHT22;29884;47.450;19.124;2022-07-06T08:00:14;23.60;99.90
44215;DHT22;29884;47.450;19.124;2022-07-06T08:02:40;23.50;99.90
44215;DHT22;29884;47.450;19.124;2022-07-06T08:05:06;23.40;99.90
44215;DHT22;29884;47.450;19.124;2022-07-06T08:07:32;23.50;99.90
44215;DHT22;29884;47.450;19.124;2022-07-06T08:09:58;23.50;99.90
44215;DHT22;29884;47.450;19.124;2022-07-06T08:12:24;23.50;99.90
44215;DHT22;29884;47.450;19.124;2022-07-06T08:14:51;23.60;99.90
44215;DHT22;29884;47.450;19.124;2022-07-06T08:17:17;23.70;99.90
44215;DHT22;29884;47.450;19.124;2022-07-06T08:19:43;23.90;99.90
44215;DHT22;29884;47.450;19.124;2022-07-06T08:22:08;23.90;99.90
44215;DHT22;29884;47.450;19.124;2022-07-06T08:24:35;23.80;99.90
44215;DHT22;29884;47.450;19.124;2022-07-06T08:27:01;24.00;99.90
44215;DHT22;29884;47.450;19.124;2022-07-06T08:29:27;24.20;99.90
44215;DHT22;29884;47.450;19.124;2022-07-06T08:31:52;24.50;99.90
44215;DHT22;29884;47.450;19.124;2022-07-06T08:34:18;24.70;99.90
44215;DHT22;29884;47.450;19.124;2022-07-06T08:36:44;24.80;99.90
44215;DHT22;29884;47.450;19.124;2022-07-06T08:39:10;24.90;99.90
44215;DHT22;29884;47.450;19.124;2022-07-06T08:41:36;25.10;99.90
44215;DHT22;29884;47.450;19.124;2022-07-06T08:44:04;25.20;99.90
44215;DHT22;29884;47.450;19.124;2022-07-06T08:46:30;25.50;99.90
44215;DHT22;29884;47.450;19.124;2022-07-06T08:48:57;25.80;99.90
44215;DHT22;29884;47.450;19.124;2022-07-06T08:51:24;25.80;99.90
44215;DHT22;29884;47.450;19.124;2022-07-06T08:53:51;26.00;99.90
44215;DHT22;29884;47.450;19.124;2022-07-06T08:56:18;26.20;99.90
44215;DHT22;29884;47.450;19.124;2022-07-06T08:58:44;26.30;99.90
44215;DHT22;29884;47.450;19.124;2022-07-06T09:01:11;26.60;99.90
44215;DHT22;29884;47.450;19.124;2022-07-06T09:03:39;26.80;99.90
44215;DHT22;29884;47.450;19.124;2022-07-06T09:06:07;26.60;99.90
44215;DHT22;29884;47.450;19.124;2022-07-06T09:08:33;26.70;99.90
44215;DHT22;29884;47.450;19.124;2022-07-06T09:10:58;26.80;99.90
44215;DHT22;29884;47.450;19.124;2022-07-06T09:13:24;26.60;99.90
44215;DHT22;29884;47.450;19.124;2022-07-06T09:15:50;26.50;99.90
44215;DHT22;29884;47.450;19.124;2022-07-06T09:18:16;26.60;99.90
44215;DHT22;29884;47.450;19.124;2022-07-06T09:20:42;26.80;99.90
44215;DHT22;29884;47.450;19.124;2022-07-06T09:23:08;27.10;99.60
44215;DHT22;29884;47.450;19.124;2022-07-06T09:25:34;27.20;99.90
44215;DHT22;29884;47.450;19.124;2022-07-06T09:28:01;27.30;99.90
44215;DHT22;29884;47.450;19.124;2022-07-06T09:30:28;26.90;98.50
44215;DHT22;29884;47.450;19.124;2022-07-06T09:32:56;26.60;99.00
44215;DHT22;29884;47.450;19.124;2022-07-06T09:38:04;27.40;97.60
44215;DHT22;29884;47.450;19.124;2022-07-06T09:40:32;27.80;97.00
44215;DHT22;29884;47.450;19.124;2022-07-06T09:45:38;28.10;97.00
44215;DHT22;29884;47.450;19.124;2022-07-06T09:48:14;28.20;94.10
44215;DHT22;29884;47.450;19.124;2022-07-06T09:50:46;28.20;94.10
44215;DHT22;29884;47.450;19.124;2022-07-06T09:53:14;28.00;93.40
44215;DHT22;29884;47.450;19.124;2022-07-06T09:55:44;28.20;93.30
44215;DHT22;29884;47.450;19.124;2022-07-06T09:58:11;28.60;91.60
44215;DHT22;29884;47.450;19.124;2022-07-06T10:00:36;28.50;91.60
44215;DHT22;29884;47.450;19.124;2022-07-06T10:03:04;28.60;91.70
44215;DHT22;29884;47.450;19.124;2022-07-06T10:05:32;28.80;90.70
44215;DHT22;29884;47.450;19.124;2022-07-06T10:08:00;29.10;90.50
44215;DHT22;29884;47.450;19.124;2022-07-06T10:10:27;29.20;88.10
44215;DHT22;29884;47.450;19.124;2022-07-06T10:12:57;29.40;88.90
44215;DHT22;29884;47.450;19.124;2022-07-06T10:15:26;29.50;87.60
44215;DHT22;29884;47.450;19.124;2022-07-06T10:17:52;28.80;85.90
44215;DHT22;29884;47.450;19.124;2022-07-06T10:20:21;28.70;84.80
44215;DHT22;29884;47.450;19.124;2022-07-06T10:22:48;29.00;84.20
44215;DHT22;29884;47.450;19.124;2022-07-06T10:25:18;29.30;85.30
44215;DHT22;29884;47.450;19.124;2022-07-06T10:27:45;29.40;83.60
44215;DHT22;29884;47.450;19.124;2022-07-06T10:30:12;29.60;85.10
44215;DHT22;29884;47.450;19.124;2022-07-06T10:32:42;29.20;81.70
44215;DHT22;29884;47.450;19.124;2022-07-06T10:35:09;28.90;84.50
44215;DHT22;29884;47.450;19.124;2022-07-06T10:37:35;28.50;83.50
44215;DHT22;29884;47.450;19.124;2022-07-06T10:40:01;28.40;84.30
44215;DHT22;29884;47.450;19.124;2022-07-06T10:42:48;28.30;84.20
44215;DHT22;29884;47.450;19.124;2022-07-06T10:50:45;28.50;78.90
44215;DHT22;29884;47.450;19.124;2022-07-06T10:53:17;28.00;78.70
44215;DHT22;29884;47.450;19.124;2022-07-06T10:55:47;28.50;79.20
44215;DHT22;29884;47.450;19.124;2022-07-06T10:58:15;29.00;77.80
44215;DHT22;29884;47.450;19.124;2022-07-06T11:00:59;29.40;75.90
44215;DHT22;29884;47.450;19.124;2022-07-06T11:06:13;29.70;70.60
44215;DHT22;29884;47.450;19.124;2022-07-06T11:08:43;29.80;69.30
44215;DHT22;29884;47.450;19.124;2022-07-06T11:11:17;29.90;70.00
44215;DHT22;29884;47.450;19.124;2022-07-06T11:14:10;29.80;70.00
44215;DHT22;29884;47.450;19.124;2022-07-06T11:17:00;30.10;68.40
44215;DHT22;29884;47.450;19.124;2022-07-06T11:19:30;30.10;67.80
44215;DHT22;29884;47.450;19.124;2022-07-06T11:21:58;30.10;66.30
44215;DHT22;29884;47.450;19.124;2022-07-06T11:24:32;30.10;65.90
44215;DHT22;29884;47.450;19.124;2022-07-06T11:26:59;30.50;66.90
44215;DHT22;29884;47.450;19.124;2022-07-06T11:29:28;30.60;63.40
44215;DHT22;29884;47.450;19.124;2022-07-06T11:31:56;31.00;64.80
44215;DHT22;29884;47.450;19.124;2022-07-06T11:34:28;31.10;62.30
44215;DHT22;29884;47.450;19.124;2022-07-06T11:37:04;31.20;63.00
44215;DHT22;29884;47.450;19.124;2022-07-06T11:39:32;31.30;59.00
44215;DHT22;29884;47.450;19.124;2022-07-06T11:41:59;31.40;61.20
44215;DHT22;29884;47.450;19.124;2022-07-06T11:44:26;30.80;59.60
44215;DHT22;29884;47.450;19.124;2022-07-06T11:46:53;30.60;56.90
44215;DHT22;29884;47.450;19.124;2022-07-06T11:49:21;30.90;58.40
44215;DHT22;29884;47.450;19.124;2022-07-06T11:51:47;30.70;57.60
44215;DHT22;29884;47.450;19.124;2022-07-06T11:54:21;30.10;56.90
44215;DHT22;29884;47.450;19.124;2022-07-06T11:56:48;30.50;58.70
44215;DHT22;29884;47.450;19.124;2022-07-06T11:59:15;30.80;57.70
44215;DHT22;29884;47.450;19.124;2022-07-06T12:01:42;30.00;57.20
44215;DHT22;29884;47.450;19.124;2022-07-06T12:04:10;30.00;57.40
44215;DHT22;29884;47.450;19.124;2022-07-06T12:06:36;30.50;57.40
44215;DHT22;29884;47.450;19.124;2022-07-06T12:09:02;30.70;56.60
44215;DHT22;29884;47.450;19.124;2022-07-06T12:11:36;30.80;57.10
44215;DHT22;29884;47.450;19.124;2022-07-06T12:14:16;31.10;56.60
44215;DHT22;29884;47.450;19.124;2022-07-06T12:16:43;31.10;56.70
44215;DHT22;29884;47.450;19.124;2022-07-06T12:19:09;31.00;55.80
44215;DHT22;29884;47.450;19.124;2022-07-06T12:21:42;31.10;56.10
44215;DHT22;29884;47.450;19.124;2022-07-06T12:24:08;30.60;55.70
44215;DHT22;29884;47.450;19.124;2022-07-06T12:26:40;30.60;55.40
44215;DHT22;29884;47.450;19.124;2022-07-06T12:29:11;30.90;55.60
44215;DHT22;29884;47.450;19.124;2022-07-06T12:31:59;30.80;55.30
44215;DHT22;29884;47.450;19.124;2022-07-06T12:34:28;29.90;56.50
44215;DHT22;29884;47.450;19.124;2022-07-06T12:36:59;29.30;56.50
44215;DHT22;29884;47.450;19.124;2022-07-06T12:39:26;28.80;57.90
44215;DHT22;29884;47.450;19.124;2022-07-06T12:42:03;28.90;58.90
44215;DHT22;29884;47.450;19.124;2022-07-06T12:44:30;29.10;58.50
44215;DHT22;29884;47.450;19.124;2022-07-06T12:47:06;29.90;59.20
44215;DHT22;29884;47.450;19.124;2022-07-06T12:49:32;30.20;56.60
44215;DHT22;29884;47.450;19.124;2022-07-06T12:54:27;30.10;55.90
44215;DHT22;29884;47.450;19.124;2022-07-06T12:57:13;29.90;54.50
44215;DHT22;29884;47.450;19.124;2022-07-06T12:59:56;30.20;56.10
44215;DHT22;29884;47.450;19.124;2022-07-06T13:05:05;30.50;52.80
44215;DHT22;29884;47.450;19.124;2022-07-06T13:07:32;30.30;51.90
44215;DHT22;29884;47.450;19.124;2022-07-06T13:10:09;30.30;52.40
44215;DHT22;29884;47.450;19.124;2022-07-06T13:12:36;30.50;52.20
44215;DHT22;29884;47.450;19.124;2022-07-06T13:15:04;30.50;51.90
44215;DHT22;29884;47.450;19.124;2022-07-06T13:17:30;30.50;51.70
44215;DHT22;29884;47.450;19.124;2022-07-06T13:19:56;30.70;52.50
44215;DHT22;29884;47.450;19.124;2022-07-06T13:22:22;30.60;51.10
44215;DHT22;29884;47.450;19.124;2022-07-06T13:24:47;30.30;52.10
44215;DHT22;29884;47.450;19.124;2022-07-06T13:27:13;30.40;50.60
44215;DHT22;29884;47.450;19.124;2022-07-06T13:29:39;30.30;51.30
44215;DHT22;29884;47.450;19.124;2022-07-06T13:32:05;30.20;51.40
44215;DHT22;29884;47.450;19.124;2022-07-06T13:34:32;30.30;50.90
44215;DHT22;29884;47.450;19.124;2022-07-06T13:36:58;30.10;50.90
44215;DHT22;29884;47.450;19.124;2022-07-06T13:39:24;30.10;51.70
44215;DHT22;29884;47.450;19.124;2022-07-06T13:41:53;30.30;51.90
44215;DHT22;29884;47.450;19.124;2022-07-06T13:44:19;30.10;50.70
44215;DHT22;29884;47.450;19.124;2022-07-06T13:46:45;30.20;51.90
44215;DHT22;29884;47.450;19.124;2022-07-06T13:49:11;29.80;53.20
44215;DHT22;29884;47.450;19.124;2022-07-06T13:51:36;29.90;54.30
44215;DHT22;29884;47.450;19.124;2022-07-06T13:54:02;30.30;55.60
44215;DHT22;29884;47.450;19.124;2022-07-06T13:56:28;30.30;55.60
44215;DHT22;29884;47.450;19.124;2022-07-06T13:58:54;30.10;56.00
44215;DHT22;29884;47.450;19.124;2022-07-06T14:01:20;30.10;56.20
44215;DHT22;29884;47.450;19.124;2022-07-06T14:03:46;30.00;56.10
44215;DHT22;29884;47.450;19.124;2022-07-06T14:06:12;29.90;56.20
44215;DHT22;29884;47.450;19.124;2022-07-06T14:08:39;29.90;56.90
44215;DHT22;29884;47.450;19.124;2022-07-06T14:11:07;30.00;56.60
44215;DHT22;29884;47.450;19.124;2022-07-06T14:13:34;29.90;56.50
44215;DHT22;29884;47.450;19.124;2022-07-06T14:16:00;29.80;56.30
44215;DHT22;29884;47.450;19.124;2022-07-06T14:18:26;29.60;56.30
44215;DHT22;29884;47.450;19.124;2022-07-06T14:20:52;29.50;56.40
44215;DHT22;29884;47.450;19.124;2022-07-06T14:23:19;29.50;57.00
44215;DHT22;29884;47.450;19.124;2022-07-06T14:25:45;29.40;57.10
44215;DHT22;29884;47.450;19.124;2022-07-06T14:28:11;29.40;57.90
44215;DHT22;29884;47.450;19.124;2022-07-06T14:30:40;29.60;56.90
44215;DHT22;29884;47.450;19.124;2022-07-06T14:33:08;29.60;56.80
44215;DHT22;29884;47.450;19.124;2022-07-06T14:35:53;29.60;53.90
44215;DHT22;29884;47.450;19.124;2022-07-06T14:38:20;29.70;55.50
44215;DHT22;29884;47.450;19.124;2022-07-06T14:40:46;29.70;55.70
44215;DHT22;29884;47.450;19.124;2022-07-06T14:43:14;29.60;55.70
44215;DHT22;29884;47.450;19.124;2022-07-06T14:45:42;29.40;55.40
44215;DHT22;29884;47.450;19.124;2022-07-06T14:48:08;29.40;55.70
44215;DHT22;29884;47.450;19.124;2022-07-06T14:50:34;29.40;56.10
44215;DHT22;29884;47.450;19.124;2022-07-06T14:53:00;29.30;55.70
44215;DHT22;29884;47.450;19.124;2022-07-06T14:55:26;29.50;55.80
44215;DHT22;29884;47.450;19.124;2022-07-06T14:57:52;29.50;55.00
44215;DHT22;29884;47.450;19.124;2022-07-06T15:00:20;29.60;54.60
44215;DHT22;29884;47.450;19.124;2022-07-06T15:02:46;29.30;53.70
44215;DHT22;29884;47.450;19.124;2022-07-06T15:05:12;29.40;53.30
44215;DHT22;29884;47.450;19.124;2022-07-06T15:07:38;29.10;53.50
44215;DHT22;29884;47.450;19.124;2022-07-06T15:10:05;29.10;53.80
44215;DHT22;29884;47.450;19.124;2022-07-06T15:12:31;29.10;53.90
44215;DHT22;29884;47.450;19.124;2022-07-06T15:14:57;29.20;53.80
44215;DHT22;29884;47.450;19.124;2022-07-06T15:17:22;29.10;52.30
44215;DHT22;29884;47.450;19.124;2022-07-06T15:19:48;29.00;52.50
44215;DHT22;29884;47.450;19.124;2022-07-06T15:22:14;29.10;53.10
44215;DHT22;29884;47.450;19.124;2022-07-06T15:24:40;29.00;52.50
44215;DHT22;29884;47.450;19.124;2022-07-06T15:27:06;28.90;53.20
44215;DHT22;29884;47.450;19.124;2022-07-06T15:29:32;29.00;52.90
44215;DHT22;29884;47.450;19.124;2022-07-06T15:31:58;28.90;52.50
44215;DHT22;29884;47.450;19.124;2022-07-06T15:34:24;29.10;52.40
44215;DHT22;29884;47.450;19.124;2022-07-06T15:36:50;28.60;51.20